Главная страница
METAR-TAF:

METAR-TAF

Аэропорты :

Берберати, Центральноафриканская Республика

широта: 04-15N, долгота: 015-48E, высота над уровнем моря: 582 м

Текущие метеонаблюдения

Эта сводка был подготовлена 18 часа и 2 минут назад, в 10:00 UTC
Ветер 2 Узел от западный
Температура 23°C
Влажность 94%
Давление 1016 hPa
Видимость 10 км и более
небольшая облачность на высоте 800 фута
небольшая облачность на высоте 3300 фута, Кучево-дождевые.
гроза,

METAR: FEFT 191000Z 28002KT 9999 TS FEW008 FEW033CB 23/22 Q1016 RERA

Время: 05:02 (04:02 UTC)


TAF: отсутствует

Метеонаблюдения и прогнозы для более 4000 аэропортов (сводки METAR и TAF).

Имеющиеся станции представлены на карте желтыми и красными точками.

Чтобы увидеть название станции, наведите на нее мышь.

Затем щелкните, чтобы увидеть метеонаблюдения и метеопрогнозы.

Управление картой: чтобы увеличить масштаб, щелкните зеленые кнопки с черным крестиком; чтобы уменьшить масштаб, щелкните зеленую кнопку с тире; для просмотра соседних карт щелкайте зеленые стрелки.


METAR-TAF: